createdAt,value
2019-04-14T00:00:49.719Z,5.9
2019-04-14T00:01:54.731Z,5.4
2019-04-14T00:02:58.086Z,5.9
2019-04-14T00:04:01.320Z,6.2
2019-04-14T00:05:06.028Z,6
2019-04-14T00:06:11.481Z,6.1
2019-04-14T00:07:14.854Z,6.2
2019-04-14T00:08:18.120Z,6.1
2019-04-14T00:09:23.141Z,6.3
2019-04-14T00:10:27.015Z,6.2
2019-04-14T00:11:30.629Z,6.2
2019-04-14T00:12:33.942Z,6
2019-04-14T00:13:37.316Z,6
2019-04-14T00:14:40.737Z,6.2
2019-04-14T00:15:56.552Z,6.2
2019-04-14T00:17:00.006Z,6.1
2019-04-14T00:18:03.422Z,6
2019-04-14T00:19:06.720Z,6.2
2019-04-14T00:20:11.549Z,6
2019-04-14T00:21:15.351Z,6.3
2019-04-14T00:22:18.834Z,6.1
2019-04-14T00:23:23.715Z,5.7
2019-04-14T00:24:27.310Z,5.9
2019-04-14T00:25:30.671Z,6.3
2019-04-14T00:26:35.967Z,6.1
2019-04-14T00:27:39.138Z,6.4
2019-04-14T00:28:42.758Z,6.4
2019-04-14T00:29:46.217Z,6.3
2019-04-14T00:30:49.492Z,6
2019-04-14T00:31:58.775Z,6.4
2019-04-14T00:33:03.882Z,6.3
2019-04-14T00:34:07.664Z,6.3
2019-04-14T00:35:12.703Z,6.2
2019-04-14T00:36:15.894Z,6.1
2019-04-14T00:37:20.475Z,6.2
2019-04-14T00:38:24.232Z,6.3
2019-04-14T00:39:27.913Z,6.1
2019-04-14T00:40:36.577Z,6.3
2019-04-14T00:42:05.292Z,6.2
2019-04-14T00:43:11.557Z,6.2
2019-04-14T00:44:15.701Z,6.4
2019-04-14T00:46:01.054Z,6.4
2019-04-14T00:47:07.718Z,6.4
2019-04-14T00:48:25.845Z,6.4
2019-04-14T00:49:29.362Z,6.3
2019-04-14T00:50:34.087Z,6.3
2019-04-14T00:51:44.480Z,6.4
2019-04-14T00:52:49.880Z,6.4
2019-04-14T00:53:53.756Z,6.2
2019-04-14T00:54:57.028Z,6.1
2019-04-14T00:56:01.822Z,6
2019-04-14T00:57:05.522Z,6.2
2019-04-14T00:58:10.110Z,6.4
2019-04-14T00:59:13.823Z,6.1
2019-04-14T01:00:23.774Z,6
2019-04-14T01:01:27.080Z,6.2
2019-04-14T01:02:31.759Z,6.5
2019-04-14T01:03:35.402Z,6.5
2019-04-14T01:04:38.677Z,6.3
2019-04-14T01:05:42.111Z,6.5
2019-04-14T01:06:47.514Z,6.3
2019-04-14T01:07:52.537Z,6.4
2019-04-14T01:08:55.977Z,6.4
2019-04-14T01:10:02.035Z,6.4
2019-04-14T01:11:05.468Z,6.4
2019-04-14T01:12:08.808Z,6.3
2019-04-14T01:13:18.349Z,6.2
2019-04-14T01:14:21.628Z,6.2
2019-04-14T01:15:25.032Z,6.5
2019-04-14T01:16:30.364Z,6.3
2019-04-14T01:17:35.423Z,6.3
2019-04-14T01:18:38.879Z,6.2
2019-04-14T01:19:42.289Z,6.5
2019-04-14T01:20:47.310Z,6.3
2019-04-14T01:21:50.700Z,6.6
2019-04-14T01:22:55.665Z,6.5
2019-04-14T01:23:59.105Z,6.6
2019-04-14T01:25:02.764Z,6.8
2019-04-14T01:26:07.586Z,6.8
2019-04-14T01:27:10.854Z,6.2
2019-04-14T01:28:16.051Z,6.4
2019-04-14T01:29:19.350Z,6.5
2019-04-14T01:30:24.393Z,6.3
2019-04-14T01:31:27.737Z,6.5
2019-04-14T01:32:31.083Z,6.5
2019-04-14T01:33:36.064Z,6.3
2019-04-14T01:34:39.559Z,6.6
2019-04-14T01:35:44.590Z,6.8
2019-04-14T01:36:49.564Z,6.9
2019-04-14T01:37:53.487Z,7
2019-04-14T01:38:58.337Z,6.3
2019-04-14T01:40:01.592Z,6.2
2019-04-14T01:41:06.812Z,6.2
2019-04-14T01:42:10.200Z,6.4
2019-04-14T01:43:17.228Z,6.5
2019-04-14T01:44:20.524Z,6.5
2019-04-14T01:45:25.711Z,6.4
2019-04-14T01:46:37.736Z,6.5
2019-04-14T01:47:42.266Z,6.5
2019-04-14T01:48:45.549Z,6.4
2019-04-14T01:49:48.857Z,6.9
2019-04-14T01:50:52.376Z,6.6
2019-04-14T01:51:57.292Z,6.5
2019-04-14T01:53:01.290Z,6.8
2019-04-14T01:54:04.543Z,6.7
2019-04-14T01:55:09.311Z,6.8
2019-04-14T01:56:12.915Z,6.6
2019-04-14T01:57:17.780Z,6.5
2019-04-14T01:58:21.140Z,6.9
2019-04-14T01:59:24.543Z,6.4
2019-04-14T02:00:29.378Z,6.4
2019-04-14T02:01:32.688Z,6.8
2019-04-14T02:02:36.034Z,6.8
2019-04-14T02:03:39.334Z,6.6
2019-04-14T02:04:42.528Z,6.7
2019-04-14T02:05:45.899Z,6.2
2019-04-14T02:06:50.759Z,6.6
2019-04-14T02:07:54.145Z,6.8
2019-04-14T02:08:58.861Z,6.6
2019-04-14T02:10:02.556Z,6.9
2019-04-14T02:11:09.370Z,7.1
2019-04-14T02:12:13.352Z,6.9
2019-04-14T02:13:18.385Z,6.8
2019-04-14T02:14:21.769Z,6.6
2019-04-14T02:15:26.975Z,6.4
2019-04-14T02:17:04.384Z,6.3
2019-04-14T02:18:12.341Z,6.9
2019-04-14T02:19:15.919Z,7
2019-04-14T02:20:20.628Z,6.8
2019-04-14T02:21:24.131Z,6.4
2019-04-14T02:22:27.538Z,6.6
2019-04-14T02:23:32.675Z,6.8
2019-04-14T02:24:37.701Z,6.7
2019-04-14T02:25:41.174Z,6.8
2019-04-14T02:26:46.505Z,7.1
2019-04-14T02:27:51.859Z,7
2019-04-14T02:28:57.362Z,7.1
2019-04-14T02:30:03.522Z,6.9
2019-04-14T02:34:24.859Z,7.1
2019-04-14T02:39:29.083Z,7.2
2019-04-14T02:45:26.084Z,7
2019-04-14T02:51:03.999Z,6.7
2019-04-14T02:56:15.421Z,7.1
2019-04-14T03:01:22.872Z,7.2
2019-04-14T03:06:17.558Z,6.9
2019-04-14T03:11:30.645Z,7.1
2019-04-14T03:16:29.158Z,7
2019-04-14T03:25:40.875Z,7.4
2019-04-14T03:31:24.250Z,7.4
2019-04-14T03:42:28.440Z,7.1
2019-04-14T03:53:26.069Z,7.1
2019-04-14T03:56:09.075Z,7
2019-04-14T03:57:19.022Z,7.3
2019-04-14T03:58:22.972Z,6.7
2019-04-14T03:59:28.344Z,6.7
2019-04-14T04:00:31.761Z,6.9
2019-04-14T04:01:35.113Z,7.1
2019-04-14T04:02:40.416Z,7.1
2019-04-14T04:03:43.793Z,7.2
2019-04-14T04:04:47.420Z,6.6
2019-04-14T04:05:52.386Z,7
2019-04-14T04:06:57.674Z,7.1
2019-04-14T04:08:01.379Z,7.2
2019-04-14T04:09:06.432Z,7.1
2019-04-14T04:10:11.660Z,6.8
2019-04-14T04:11:14.992Z,6.8
2019-04-14T04:12:18.454Z,6.9
2019-04-14T04:13:21.827Z,7.3
2019-04-14T04:14:25.185Z,7.6
2019-04-14T04:15:28.458Z,7.6
2019-04-14T04:16:33.478Z,7.8
2019-04-14T04:17:37.254Z,7.7
2019-04-14T04:19:19.713Z,7.6
2019-04-14T04:20:24.351Z,7.7
2019-04-14T04:21:27.598Z,7.7
2019-04-14T04:22:32.788Z,7.8
2019-04-14T04:23:35.905Z,7.7
2019-04-14T04:24:39.452Z,7.7
2019-04-14T04:25:42.719Z,7.5
2019-04-14T04:26:47.418Z,7.4
2019-04-14T04:27:50.857Z,7.6
2019-04-14T04:28:54.231Z,7.7
2019-04-14T04:29:59.111Z,7.6
2019-04-14T04:31:02.648Z,7.2
2019-04-14T04:32:07.690Z,7.1
2019-04-14T04:33:11.101Z,7.5
2019-04-14T04:34:14.469Z,7.6
2019-04-14T04:35:17.844Z,7.3
2019-04-14T04:36:22.398Z,7.4
2019-04-14T04:37:26.073Z,7.4
2019-04-14T04:38:29.446Z,7.4
2019-04-14T04:39:41.559Z,7.2
2019-04-14T04:40:46.533Z,7.4
2019-04-14T04:41:50.029Z,7.3
2019-04-14T04:42:55.215Z,7.6
2019-04-14T04:43:58.834Z,7.9
2019-04-14T04:45:05.973Z,7.3
2019-04-14T04:46:09.679Z,7.7
2019-04-14T04:47:14.755Z,7.8
2019-04-14T04:48:21.667Z,7.7
2019-04-14T04:49:34.411Z,7.6
2019-04-14T04:50:39.510Z,7.3
2019-04-14T04:51:44.519Z,7.5
2019-04-14T04:52:47.916Z,7.6
2019-04-14T04:53:52.707Z,7.6
2019-04-14T04:54:56.149Z,7.5
2019-04-14T04:55:59.514Z,7.7
2019-04-14T04:57:05.248Z,7.8
2019-04-14T04:58:10.317Z,7.8
2019-04-14T04:59:15.188Z,7.4
2019-04-14T05:00:19.628Z,7.6
2019-04-14T05:01:23.671Z,7.5
2019-04-14T05:02:27.137Z,7.6
2019-04-14T05:03:31.711Z,7.3
2019-04-14T05:04:35.354Z,7.3
2019-04-14T05:05:38.653Z,7.2
2019-04-14T05:06:42.291Z,7.2
2019-04-14T05:07:47.115Z,7.5
2019-04-14T05:08:50.460Z,7.7
2019-04-14T05:09:53.791Z,7.4
2019-04-14T05:10:57.120Z,7.5
2019-04-14T05:12:00.501Z,7.7
2019-04-14T05:13:05.122Z,7.4
2019-04-14T05:14:08.920Z,7.2
2019-04-14T05:15:12.235Z,7.2
2019-04-14T05:16:15.536Z,7.5
2019-04-14T05:17:19.330Z,7.6
2019-04-14T05:18:22.868Z,7.6
2019-04-14T05:19:43.810Z,7.7
2019-04-14T05:20:48.745Z,7.5
2019-04-14T05:21:52.113Z,7.7
2019-04-14T05:22:55.482Z,7.5
2019-04-14T05:23:58.901Z,7.6
2019-04-14T05:25:03.487Z,7.7
2019-04-14T05:26:07.299Z,7.9
2019-04-14T05:27:10.591Z,7.5
2019-04-14T05:28:13.982Z,7.7
2019-04-14T05:29:19.218Z,7.7
2019-04-14T05:30:24.030Z,7.7
2019-04-14T05:31:33.900Z,7.5
2019-04-14T05:32:37.297Z,7.4
2019-04-14T05:33:40.634Z,7.4
2019-04-14T05:34:43.809Z,7.9
2019-04-14T05:35:47.223Z,8.1
2019-04-14T05:36:52.356Z,8.2
2019-04-14T05:37:55.682Z,7.9
2019-04-14T05:39:00.173Z,7.8
2019-04-14T05:40:04.147Z,8.1
2019-04-14T05:41:07.565Z,8
2019-04-14T05:42:31.587Z,7.9
2019-04-14T05:44:04.767Z,7.6
2019-04-14T05:45:11.116Z,8.1
2019-04-14T05:46:14.523Z,8
2019-04-14T05:47:17.953Z,7.8
2019-04-14T05:48:21.267Z,8.3
2019-04-14T05:49:59.227Z,8.2
2019-04-14T05:51:04.364Z,8.2
2019-04-14T05:52:08.420Z,7.9
2019-04-14T05:53:13.398Z,7.9
2019-04-14T05:54:16.723Z,7.8
2019-04-14T05:55:20.440Z,8
2019-04-14T05:56:25.452Z,7.9
2019-04-14T05:57:30.498Z,8.4
2019-04-14T05:58:34.330Z,8.5
2019-04-14T05:59:37.736Z,8.1
2019-04-14T06:00:39.883Z,8.5
2019-04-14T06:01:44.716Z,8.1
2019-04-14T06:02:48.731Z,8.4
2019-04-14T06:03:52.175Z,8.2
2019-04-14T06:04:55.557Z,8.3
2019-04-14T06:05:59.002Z,7.7
2019-04-14T06:07:01.120Z,8.2
2019-04-14T06:08:03.239Z,7.9
2019-04-14T06:09:05.347Z,8.2
2019-04-14T06:10:07.476Z,8.3
2019-04-14T06:11:09.871Z,8.4
2019-04-14T06:12:11.974Z,8.4
2019-04-14T06:13:14.120Z,8.2
2019-04-14T06:14:16.229Z,8.5
2019-04-14T06:15:18.340Z,8.3
2019-04-14T06:16:20.467Z,8.6
2019-04-14T06:17:22.582Z,8.5
2019-04-14T06:18:24.690Z,8.3
2019-04-14T06:19:41.883Z,8.2
2019-04-14T06:20:44.310Z,8.6
2019-04-14T06:21:46.434Z,9
2019-04-14T06:22:48.548Z,8.7
2019-04-14T06:23:50.663Z,8.9
2019-04-14T06:24:52.787Z,8.9
2019-04-14T06:25:54.899Z,8.8
2019-04-14T06:26:57.334Z,8.9
2019-04-14T06:27:59.451Z,9
2019-04-14T06:29:01.559Z,8.8
2019-04-14T06:30:03.699Z,8.4
2019-04-14T06:31:08.792Z,8.7
2019-04-14T06:32:11.070Z,8.9
2019-04-14T06:33:13.175Z,8.6
2019-04-14T06:34:15.584Z,9.1
2019-04-14T06:35:17.681Z,9.1
2019-04-14T06:36:19.806Z,9.4
2019-04-14T06:37:21.922Z,9.2
2019-04-14T06:38:24.043Z,9.1
2019-04-14T06:39:26.589Z,9
2019-04-14T06:40:28.703Z,8.9
2019-04-14T06:41:30.818Z,9.1
2019-04-14T06:42:32.914Z,9
2019-04-14T06:43:35.074Z,8.7
2019-04-14T06:44:37.185Z,8.9
2019-04-14T06:45:39.686Z,8.9
2019-04-14T06:46:42.487Z,8.5
2019-04-14T06:47:44.905Z,8.9
2019-04-14T06:48:47.082Z,9
2019-04-14T06:49:50.488Z,8.7
2019-04-14T06:50:52.606Z,8.4
2019-04-14T06:51:55.098Z,8.6
2019-04-14T06:52:57.505Z,8.3
2019-04-14T06:53:59.607Z,8.7
2019-04-14T06:55:01.730Z,8.8
2019-04-14T06:56:04.171Z,9
2019-04-14T06:57:06.291Z,8.8
2019-04-14T06:58:08.404Z,9.1
2019-04-14T06:59:10.539Z,9.3
2019-04-14T07:00:12.647Z,9.5
2019-04-14T07:01:14.790Z,8.9
2019-04-14T07:02:16.916Z,8.9
2019-04-14T07:03:19.016Z,8.8
2019-04-14T07:04:21.153Z,8.8
2019-04-14T07:05:23.301Z,8.9
2019-04-14T07:06:25.448Z,8.9
2019-04-14T07:07:27.543Z,8.8
2019-04-14T07:08:31.483Z,9.1
2019-04-14T07:09:33.592Z,9.1
2019-04-14T07:10:35.696Z,8.9
2019-04-14T07:11:37.822Z,8.9
2019-04-14T07:12:42.767Z,9.1
2019-04-14T07:13:49.758Z,9.1
2019-04-14T07:14:52.180Z,9
2019-04-14T07:15:54.311Z,9.3
2019-04-14T07:16:56.424Z,8.8
2019-04-14T07:17:58.550Z,8.7
2019-04-14T07:19:00.674Z,8.5
2019-04-14T07:20:04.383Z,9
2019-04-14T07:21:06.835Z,8.8
2019-04-14T07:22:08.955Z,8.9
2019-04-14T07:23:11.062Z,8.7
2019-04-14T07:24:13.491Z,8.7
2019-04-14T07:25:15.622Z,8.6
2019-04-14T07:26:17.736Z,8.8
2019-04-14T07:27:19.913Z,9
2019-04-14T07:28:22.029Z,8.7
2019-04-14T07:29:24.137Z,9
2019-04-14T07:30:26.262Z,9.2
2019-04-14T07:31:28.392Z,9.2
2019-04-14T07:32:30.511Z,9.4
2019-04-14T07:33:32.630Z,9.3
2019-04-14T07:34:37.387Z,8.6
2019-04-14T07:35:39.520Z,8.7
2019-04-14T07:36:41.626Z,8.6
2019-04-14T07:37:43.747Z,8.5
2019-04-14T07:38:45.869Z,8.8
2019-04-14T07:39:48.289Z,8.8
2019-04-14T07:40:50.398Z,8.7
2019-04-14T07:41:52.826Z,8.9
2019-04-14T07:42:55.408Z,8.7
2019-04-14T07:43:57.809Z,8.6
2019-04-14T07:44:59.948Z,8.8
2019-04-14T07:46:02.347Z,8.9
2019-04-14T07:47:04.776Z,9
2019-04-14T07:48:06.884Z,8.9
2019-04-14T07:49:09.018Z,9.2
2019-04-14T07:50:16.538Z,9.2
2019-04-14T07:51:18.665Z,9.1
2019-04-14T07:52:20.796Z,8.6
2019-04-14T07:53:23.279Z,8.6
2019-04-14T07:54:25.465Z,8.5
2019-04-14T07:55:27.595Z,8.7
2019-04-14T07:56:29.704Z,8.9
2019-04-14T07:57:31.880Z,8.8
2019-04-14T07:58:34.006Z,8.8
2019-04-14T07:59:36.135Z,8.8
2019-04-14T08:00:38.263Z,8.7
2019-04-14T08:01:40.401Z,8.7
2019-04-14T08:02:42.511Z,8.6
2019-04-14T08:03:44.707Z,8.6
2019-04-14T08:04:46.838Z,8.8
2019-04-14T08:05:48.935Z,8.8
2019-04-14T08:06:51.117Z,8.4
2019-04-14T08:07:53.239Z,8.5
2019-04-14T08:08:55.404Z,8.6
2019-04-14T08:09:57.533Z,8.6
2019-04-14T08:10:59.636Z,8.6
2019-04-14T08:12:01.746Z,8.7
2019-04-14T08:13:04.157Z,9.1
2019-04-14T08:14:06.348Z,8.8
2019-04-14T08:15:08.522Z,8.5
2019-04-14T08:16:10.653Z,8.9
2019-04-14T08:17:12.862Z,8.7
2019-04-14T08:18:14.990Z,9.1
2019-04-14T08:19:17.541Z,8.8
2019-04-14T08:20:29.033Z,8.7
2019-04-14T08:21:31.151Z,9
2019-04-14T08:22:33.259Z,9.1
2019-04-14T08:23:35.450Z,9.1
2019-04-14T08:24:37.900Z,8.9
2019-04-14T08:25:40.417Z,9.1
2019-04-14T08:26:42.548Z,9.2
2019-04-14T08:27:44.651Z,9.5
2019-04-14T08:28:46.771Z,9.2
2019-04-14T08:29:48.914Z,8.7
2019-04-14T08:30:51.051Z,8.9
2019-04-14T08:31:53.160Z,9.1
2019-04-14T08:32:55.319Z,9.4
2019-04-14T08:33:57.422Z,8.8
2019-04-14T08:34:59.534Z,8.9
2019-04-14T08:36:01.657Z,8.8
2019-04-14T08:37:04.058Z,8.9
2019-04-14T08:38:06.165Z,9.1
2019-04-14T08:39:08.310Z,9
2019-04-14T08:40:10.430Z,8.3
2019-04-14T08:41:12.846Z,9.2
2019-04-14T08:42:14.970Z,9.4
2019-04-14T08:43:17.376Z,9.3
2019-04-14T08:44:19.790Z,9.1
2019-04-14T08:45:21.911Z,9
2019-04-14T08:46:24.037Z,9.3
2019-04-14T08:47:26.141Z,9.1
2019-04-14T08:48:28.587Z,9.1
2019-04-14T08:49:30.705Z,9.1
2019-04-14T08:50:40.846Z,9.4
2019-04-14T08:51:42.976Z,9.3
2019-04-14T08:52:45.110Z,9.2
2019-04-14T08:53:47.517Z,9.5
2019-04-14T08:54:50.030Z,9.5
2019-04-14T08:55:52.136Z,9.5
2019-04-14T08:56:55.340Z,9.7
2019-04-14T08:57:57.769Z,9.4
2019-04-14T08:58:59.933Z,9.4
2019-04-14T09:00:02.115Z,9.5
2019-04-14T09:01:04.523Z,9.5
2019-04-14T09:02:06.922Z,9.1
2019-04-14T09:03:12.528Z,8.8
2019-04-14T09:04:14.652Z,9.3
2019-04-14T09:05:16.761Z,9.3
2019-04-14T09:06:18.884Z,9.6
2019-04-14T09:07:21.013Z,9
2019-04-14T09:08:23.132Z,9.1
2019-04-14T09:09:25.673Z,9.1
2019-04-14T09:10:28.246Z,9.4
2019-04-14T09:11:30.352Z,9.6
2019-04-14T09:12:32.481Z,9.8
2019-04-14T09:13:34.590Z,9.6
2019-04-14T09:14:36.707Z,9.2
2019-04-14T09:15:38.831Z,9.3
2019-04-14T09:16:40.950Z,9.3
2019-04-14T09:17:43.080Z,9.3
2019-04-14T09:18:45.224Z,8.9
2019-04-14T09:19:47.626Z,9.3
2019-04-14T09:20:53.815Z,9.4
2019-04-14T09:21:56.225Z,9.4
2019-04-14T09:22:58.341Z,9.5
2019-04-14T09:24:01.156Z,9.8
2019-04-14T09:25:03.293Z,9.9
2019-04-14T09:26:05.394Z,9.8
2019-04-14T09:27:07.509Z,9.5
2019-04-14T09:28:09.644Z,9.5
2019-04-14T09:29:11.786Z,9.7
2019-04-14T09:30:13.896Z,9.7
2019-04-14T09:31:16.007Z,9.8
2019-04-14T09:32:18.478Z,10
2019-04-14T09:33:21.118Z,10
2019-04-14T09:34:23.815Z,9.6
2019-04-14T09:35:28.742Z,9.8
2019-04-14T09:36:31.295Z,9.8
2019-04-14T09:37:33.540Z,9.9
2019-04-14T09:38:36.671Z,10.1
2019-04-14T09:39:41.727Z,9.9
2019-04-14T09:40:45.052Z,10
2019-04-14T09:41:48.263Z,9.9
2019-04-14T09:42:52.216Z,10.1
2019-04-14T09:43:54.814Z,10.3
2019-04-14T09:44:57.477Z,10.2
2019-04-14T09:45:59.840Z,10.1
2019-04-14T09:47:03.092Z,9.6
2019-04-14T09:48:06.084Z,9.6
2019-04-14T09:49:09.263Z,9.8
2019-04-14T09:50:11.631Z,9.8
2019-04-14T09:51:13.933Z,9.8
2019-04-14T09:52:16.260Z,9.8
2019-04-14T09:53:20.718Z,9.7
2019-04-14T09:54:23.117Z,9.7
2019-04-14T09:55:25.534Z,9.4
2019-04-14T09:56:27.652Z,9.2
2019-04-14T09:57:30.217Z,8.9
2019-04-14T09:58:32.362Z,8.7
2019-04-14T09:59:34.501Z,9.3
2019-04-14T10:00:36.743Z,9.1
2019-04-14T10:01:38.919Z,9.4
2019-04-14T10:02:41.051Z,9.7
2019-04-14T10:03:43.226Z,9.8
2019-04-14T10:04:45.356Z,9.8
2019-04-14T10:05:47.653Z,9.4
2019-04-14T10:06:50.153Z,9.4
2019-04-14T10:07:52.614Z,9.9
2019-04-14T10:08:55.013Z,10.1
2019-04-14T10:09:57.425Z,10
2019-04-14T10:10:59.930Z,9.8
2019-04-14T10:12:02.042Z,9.5
2019-04-14T10:13:04.175Z,9.9
2019-04-14T10:14:06.289Z,9.9
2019-04-14T10:15:08.404Z,10
2019-04-14T10:16:10.525Z,9.9
2019-04-14T10:17:12.965Z,10.1
2019-04-14T10:18:15.172Z,10.2
2019-04-14T10:19:17.428Z,9.8
2019-04-14T10:20:19.666Z,10
2019-04-14T10:21:22.075Z,9.9
2019-04-14T10:22:36.108Z,9.8
2019-04-14T10:23:40.935Z,9.6
2019-04-14T10:24:43.089Z,9.4
2019-04-14T10:25:45.333Z,9.5
2019-04-14T10:26:47.763Z,9.6
2019-04-14T10:27:50.305Z,9.9
2019-04-14T10:28:52.589Z,9.5
2019-04-14T10:29:55.429Z,9.6
2019-04-14T10:30:57.610Z,9.6
2019-04-14T10:31:59.746Z,9.8
2019-04-14T10:33:02.162Z,9.9
2019-04-14T10:34:04.334Z,9.7
2019-04-14T10:35:06.450Z,9.7
2019-04-14T10:36:08.983Z,9.5
2019-04-14T10:37:11.095Z,9.4
2019-04-14T10:38:13.225Z,9.4
2019-04-14T10:39:15.352Z,9.3
2019-04-14T10:40:17.456Z,9.3
2019-04-14T10:41:19.605Z,9.3
2019-04-14T10:42:21.790Z,9.6
2019-04-14T10:43:23.912Z,9.7
2019-04-14T10:44:26.344Z,10.2
2019-04-14T10:45:28.492Z,10.2
2019-04-14T10:46:30.890Z,10.4
2019-04-14T10:47:33.021Z,10.4
2019-04-14T10:48:35.170Z,10.1
2019-04-14T10:49:37.595Z,10.3
2019-04-14T10:50:39.721Z,10.3
2019-04-14T10:51:41.851Z,10.3
2019-04-14T10:52:43.982Z,10.3
2019-04-14T10:53:46.120Z,10.5
2019-04-14T10:54:48.248Z,10.3
2019-04-14T10:55:50.395Z,10.1
2019-04-14T10:56:52.545Z,10.3
2019-04-14T10:57:54.948Z,10.6
2019-04-14T10:58:57.070Z,10.5
2019-04-14T10:59:59.236Z,9.9
2019-04-14T11:01:01.375Z,10.1
2019-04-14T11:02:03.777Z,10.4
2019-04-14T11:03:05.900Z,10.2
2019-04-14T11:04:09.990Z,10.3
2019-04-14T11:05:12.101Z,10.3
2019-04-14T11:06:14.287Z,10.3
2019-04-14T11:07:16.408Z,10.3
2019-04-14T11:08:18.532Z,10.3
2019-04-14T11:09:20.693Z,10.5
2019-04-14T11:10:22.896Z,10.7
2019-04-14T11:11:25.013Z,10.6
2019-04-14T11:12:27.435Z,10.3
2019-04-14T11:13:29.570Z,10
2019-04-14T11:14:31.672Z,9.9
2019-04-14T11:15:34.115Z,10
2019-04-14T11:16:36.245Z,10.3
2019-04-14T11:17:38.652Z,10.5
2019-04-14T11:18:40.782Z,10.7
2019-04-14T11:19:42.904Z,10.7
2019-04-14T11:20:45.019Z,10.1
2019-04-14T11:21:47.428Z,10.1
2019-04-14T11:22:49.567Z,10.1
2019-04-14T11:24:04.704Z,9.8
2019-04-14T11:25:06.883Z,10.1
2019-04-14T11:26:08.994Z,10.1
2019-04-14T11:27:11.128Z,10.2
2019-04-14T11:28:13.259Z,10.5
2019-04-14T11:29:15.374Z,10.7
2019-04-14T11:30:17.571Z,10.9
2019-04-14T11:31:19.696Z,10.8
2019-04-14T11:32:21.816Z,10.9
2019-04-14T11:33:23.920Z,10.9
2019-04-14T11:34:26.057Z,11
2019-04-14T11:35:28.197Z,10.8
2019-04-14T11:36:30.757Z,10.6
2019-04-14T11:37:32.889Z,10.5
2019-04-14T11:38:35.293Z,10.5
2019-04-14T11:39:37.447Z,10.7
2019-04-14T11:40:39.567Z,10.4
2019-04-14T11:41:41.966Z,10.7
2019-04-14T11:42:54.142Z,10.8
2019-04-14T11:43:56.309Z,10.8
2019-04-14T11:44:58.478Z,11
2019-04-14T11:46:04.678Z,10.9
2019-04-14T11:47:07.208Z,10.6
2019-04-14T11:48:09.324Z,10.4
2019-04-14T11:49:11.765Z,10.5
2019-04-14T11:50:13.921Z,10.5
2019-04-14T11:51:16.388Z,10.7
2019-04-14T11:52:18.522Z,11
2019-04-14T11:53:20.934Z,10.7
2019-04-14T11:54:23.121Z,10.8
2019-04-14T11:55:25.243Z,10.9
2019-04-14T11:56:27.389Z,10.6
2019-04-14T11:57:29.514Z,10.4
2019-04-14T11:58:31.635Z,10.7
2019-04-14T11:59:34.073Z,10.7
2019-04-14T12:00:36.904Z,10.8
2019-04-14T12:01:39.087Z,10.8
2019-04-14T12:02:41.219Z,11.1
2019-04-14T12:03:43.415Z,11
2019-04-14T12:04:45.535Z,10.9
2019-04-14T12:05:47.663Z,10.7
2019-04-14T12:06:50.072Z,10.9
2019-04-14T12:07:52.210Z,10.9
2019-04-14T12:08:54.329Z,10.9
2019-04-14T12:09:56.451Z,10.7
2019-04-14T12:10:59.178Z,10.6
2019-04-14T12:12:01.699Z,10.7
2019-04-14T12:13:03.832Z,10.9
2019-04-14T12:14:05.943Z,10.8
2019-04-14T12:15:15.810Z,10.9
2019-04-14T12:16:19.156Z,11.1
2019-04-14T12:17:21.583Z,11
2019-04-14T12:18:23.700Z,11
2019-04-14T12:19:25.842Z,10.8
2019-04-14T12:20:27.983Z,10.9
2019-04-14T12:21:30.103Z,10.6
2019-04-14T12:22:32.226Z,10.4
2019-04-14T12:23:34.350Z,10.7
2019-04-14T12:24:36.473Z,10.8
2019-04-14T12:25:38.591Z,10.5
2019-04-14T12:26:41.047Z,10.8
2019-04-14T12:27:44.252Z,10.4
2019-04-14T12:28:47.751Z,10.8
2019-04-14T12:29:52.431Z,11
2019-04-14T12:30:57.496Z,11.4
2019-04-14T12:32:01.945Z,11.3
2019-04-14T12:33:04.079Z,10.8
2019-04-14T12:34:06.194Z,11.2
2019-04-14T12:35:08.319Z,11.2
2019-04-14T12:36:10.453Z,11
2019-04-14T12:37:12.555Z,11.3
2019-04-14T12:38:15.066Z,11.5
2019-04-14T12:39:17.185Z,11.4
2019-04-14T12:40:19.309Z,11.4
2019-04-14T12:41:23.874Z,11.7
2019-04-14T12:42:26.251Z,11.8
2019-04-14T12:43:28.758Z,12
2019-04-14T12:44:30.885Z,12.1
2019-04-14T12:45:33.377Z,12
2019-04-14T12:46:35.797Z,11.8
2019-04-14T12:47:41.611Z,11.9
2019-04-14T12:48:43.755Z,11.5
2019-04-14T12:49:45.872Z,11.6
2019-04-14T12:50:48.017Z,11.9
2019-04-14T12:51:50.415Z,11.5
2019-04-14T12:52:52.553Z,11.6
2019-04-14T12:53:54.698Z,11.9
2019-04-14T12:54:56.855Z,12
2019-04-14T12:55:58.984Z,12.2
2019-04-14T12:57:01.501Z,12.2
2019-04-14T12:58:03.640Z,12
2019-04-14T12:59:05.763Z,12.3
2019-04-14T13:00:07.885Z,12.2
2019-04-14T13:01:10.004Z,12.3
2019-04-14T13:02:12.510Z,12.1
2019-04-14T13:03:14.650Z,12.2
2019-04-14T13:04:16.781Z,12.3
2019-04-14T13:05:18.898Z,11.8
2019-04-14T13:06:21.034Z,12.3
2019-04-14T13:07:23.424Z,12.5
2019-04-14T13:08:25.933Z,12.5
2019-04-14T13:09:28.071Z,12.8
2019-04-14T13:10:30.749Z,12.9
2019-04-14T13:11:32.891Z,13
2019-04-14T13:12:35.021Z,13.3
2019-04-14T13:13:37.177Z,12.5
2019-04-14T13:14:39.347Z,12.3
2019-04-14T13:15:41.493Z,11.9
2019-04-14T13:16:43.663Z,12
2019-04-14T13:17:45.793Z,11.8
2019-04-14T13:18:47.927Z,11.6
2019-04-14T13:19:50.038Z,11.9
2019-04-14T13:20:52.554Z,12.4
2019-04-14T13:21:54.687Z,12.5
2019-04-14T13:22:56.844Z,12.2
2019-04-14T13:23:58.954Z,12.8
2019-04-14T13:25:01.079Z,12.7
2019-04-14T13:26:03.502Z,12.9
2019-04-14T13:27:05.907Z,13.2
2019-04-14T13:28:08.045Z,13.2
2019-04-14T13:29:10.165Z,12.9
2019-04-14T13:30:12.272Z,12.8
2019-04-14T13:31:14.447Z,12.7
2019-04-14T13:32:16.964Z,12.6
2019-04-14T13:33:19.082Z,12.4
2019-04-14T13:34:21.224Z,12.4
2019-04-14T13:35:23.346Z,12.6
2019-04-14T13:36:25.462Z,12.3
2019-04-14T13:37:27.664Z,12.6
2019-04-14T13:38:29.791Z,12.7
2019-04-14T13:39:31.903Z,12.5
2019-04-14T13:40:34.040Z,12.7
2019-04-14T13:41:36.169Z,12.9
2019-04-14T13:42:38.277Z,13.1
2019-04-14T13:43:40.430Z,13.3
2019-04-14T13:44:42.555Z,13.1
2019-04-14T13:45:44.687Z,13.2
2019-04-14T13:46:46.798Z,13.4
2019-04-14T13:47:48.941Z,12.6
2019-04-14T13:48:51.058Z,12.5
2019-04-14T13:49:53.181Z,12.6
2019-04-14T13:50:58.712Z,12.7
2019-04-14T13:52:01.196Z,12.6
2019-04-14T13:53:03.337Z,12.6
2019-04-14T13:54:05.454Z,12.9
2019-04-14T13:55:07.585Z,13.1
2019-04-14T13:56:09.692Z,13
2019-04-14T13:57:11.897Z,13.1
2019-04-14T13:58:14.039Z,13.1
2019-04-14T13:59:16.995Z,13.2
2019-04-14T14:00:20.939Z,13.1
2019-04-14T14:01:28.075Z,13.2
2019-04-14T14:02:39.921Z,13.4
2019-04-14T14:03:44.232Z,13.2
2019-04-14T14:04:46.806Z,13.4
2019-04-14T14:05:48.949Z,13.5
2019-04-14T14:06:51.076Z,13.5
2019-04-14T14:07:53.232Z,13.3
2019-04-14T14:08:55.359Z,13.4
2019-04-14T14:09:58.353Z,13.5
2019-04-14T14:11:00.476Z,13.4
2019-04-14T14:12:02.622Z,13.4
2019-04-14T14:13:04.735Z,13.5
2019-04-14T14:14:06.879Z,13.6
2019-04-14T14:15:09.006Z,13.4
2019-04-14T14:16:11.152Z,13.4
2019-04-14T14:17:13.296Z,13.5
2019-04-14T14:18:15.422Z,13.1
2019-04-14T14:19:17.834Z,12.6
2019-04-14T14:20:19.949Z,12.6
2019-04-14T14:21:22.089Z,12.8
2019-04-14T14:22:24.238Z,13.1
2019-04-14T14:23:29.231Z,13
2019-04-14T14:24:31.650Z,13.1
2019-04-14T14:25:33.822Z,13.5
2019-04-14T14:26:35.956Z,13.6
2019-04-14T14:27:38.119Z,13.7
2019-04-14T14:28:40.278Z,13.8
2019-04-14T14:29:42.393Z,13.8
2019-04-14T14:30:44.531Z,13.4
2019-04-14T14:31:46.651Z,13.4
2019-04-14T14:32:49.066Z,13.5
2019-04-14T14:33:51.215Z,13.1
2019-04-14T14:34:53.726Z,13
2019-04-14T14:35:56.286Z,12.7
2019-04-14T14:36:58.396Z,12.7
2019-04-14T14:38:00.523Z,13
2019-04-14T14:39:02.655Z,13.1
2019-04-14T14:40:07.858Z,13.3
2019-04-14T14:41:10.337Z,13.1
2019-04-14T14:42:13.312Z,13.4
2019-04-14T14:43:15.708Z,13.3
2019-04-14T14:44:17.828Z,13.3
2019-04-14T14:45:19.964Z,13.6
2019-04-14T14:46:22.142Z,13.7
2019-04-14T14:47:24.286Z,13.7
2019-04-14T14:48:26.704Z,13.9
2019-04-14T14:49:28.821Z,14.1
2019-04-14T14:50:30.956Z,14.1
2019-04-14T14:51:33.367Z,13.6
2019-04-14T14:52:35.500Z,13.2
2019-04-14T14:53:37.630Z,13.3
2019-04-14T14:54:40.051Z,13.6
2019-04-14T14:55:42.165Z,13.6
2019-04-14T14:56:44.772Z,13.7
2019-04-14T14:57:46.937Z,13.3
2019-04-14T14:58:49.047Z,13.5
2019-04-14T14:59:51.566Z,13.5
2019-04-14T15:00:53.700Z,13.6
2019-04-14T15:01:55.832Z,13.3
2019-04-14T15:02:58.330Z,13.4
2019-04-14T15:04:00.483Z,13.1
2019-04-14T15:05:02.894Z,13.1
2019-04-14T15:06:05.025Z,13.4
2019-04-14T15:07:07.168Z,12.9
2019-04-14T15:08:09.301Z,12.9
2019-04-14T15:09:11.420Z,12.5
2019-04-14T15:10:13.584Z,13.1
2019-04-14T15:11:15.712Z,13.4
2019-04-14T15:12:17.848Z,13
2019-04-14T15:13:20.253Z,13.1
2019-04-14T15:14:22.678Z,13.4
2019-04-14T15:15:25.078Z,13.5
2019-04-14T15:16:27.235Z,13.3
2019-04-14T15:17:29.353Z,13.3
2019-04-14T15:18:31.488Z,12.9
2019-04-14T15:19:33.594Z,12.7
2019-04-14T15:20:35.732Z,13.3
2019-04-14T15:21:38.147Z,13.3
2019-04-14T15:22:40.257Z,13.2
2019-04-14T15:23:42.394Z,13.2
2019-04-14T15:24:44.562Z,12.8
2019-04-14T15:25:46.764Z,12.6
2019-04-14T15:26:48.886Z,12.5
2019-04-14T15:27:51.304Z,13
2019-04-14T15:28:53.482Z,13.3
2019-04-14T15:29:55.603Z,13.2
2019-04-14T15:30:58.694Z,12.8
2019-04-14T15:32:01.518Z,12.6
2019-04-14T15:33:03.650Z,12.8
2019-04-14T15:34:06.171Z,12.8
2019-04-14T15:35:08.306Z,13
2019-04-14T15:36:10.409Z,13.4
2019-04-14T15:37:12.541Z,13.2
2019-04-14T15:38:14.946Z,12.9
2019-04-14T15:39:17.063Z,13